sensor_id;sensor_type;location;lat;lon;timestamp;pressure;altitude;pressure_sealevel;temperature
34807;BMP180;18310;55.586;12.286;2022-07-06T00:01:46;101858.00;;;20.90
34807;BMP180;18310;55.586;12.286;2022-07-06T00:04:50;101861.00;;;20.90
34807;BMP180;18310;55.586;12.286;2022-07-06T00:07:56;101852.00;;;20.90
34807;BMP180;18310;55.586;12.286;2022-07-06T00:11:01;101849.00;;;20.80
34807;BMP180;18310;55.586;12.286;2022-07-06T00:14:05;101858.00;;;20.80
34807;BMP180;18310;55.586;12.286;2022-07-06T00:17:08;101839.00;;;20.80
34807;BMP180;18310;55.586;12.286;2022-07-06T00:20:12;101846.00;;;20.70
34807;BMP180;18310;55.586;12.286;2022-07-06T00:23:17;101851.00;;;20.70
34807;BMP180;18310;55.586;12.286;2022-07-06T00:26:21;101851.00;;;20.70
34807;BMP180;18310;55.586;12.286;2022-07-06T00:29:24;101848.00;;;20.80
34807;BMP180;18310;55.586;12.286;2022-07-06T00:32:28;101847.00;;;20.70
34807;BMP180;18310;55.586;12.286;2022-07-06T00:35:33;101851.00;;;20.70
34807;BMP180;18310;55.586;12.286;2022-07-06T00:38:38;101845.00;;;20.70
34807;BMP180;18310;55.586;12.286;2022-07-06T00:41:41;101843.00;;;20.70
34807;BMP180;18310;55.586;12.286;2022-07-06T00:44:45;101839.00;;;20.70
34807;BMP180;18310;55.586;12.286;2022-07-06T00:47:48;101847.00;;;20.60
34807;BMP180;18310;55.586;12.286;2022-07-06T00:50:52;101837.00;;;20.60
34807;BMP180;18310;55.586;12.286;2022-07-06T00:53:59;101840.00;;;20.50
34807;BMP180;18310;55.586;12.286;2022-07-06T00:57:04;101843.00;;;20.50
34807;BMP180;18310;55.586;12.286;2022-07-06T01:00:12;101842.00;;;20.50
34807;BMP180;18310;55.586;12.286;2022-07-06T01:03:16;101841.00;;;20.40
34807;BMP180;18310;55.586;12.286;2022-07-06T01:06:20;101844.00;;;20.40
34807;BMP180;18310;55.586;12.286;2022-07-06T01:09:26;101841.00;;;20.40
34807;BMP180;18310;55.586;12.286;2022-07-06T01:12:31;101843.00;;;20.50
34807;BMP180;18310;55.586;12.286;2022-07-06T01:15:35;101841.00;;;20.40
34807;BMP180;18310;55.586;12.286;2022-07-06T01:18:38;101846.00;;;20.40
34807;BMP180;18310;55.586;12.286;2022-07-06T01:21:44;101844.00;;;20.40
34807;BMP180;18310;55.586;12.286;2022-07-06T01:24:48;101842.00;;;20.40
34807;BMP180;18310;55.586;12.286;2022-07-06T01:27:51;101841.00;;;20.40
34807;BMP180;18310;55.586;12.286;2022-07-06T01:30:54;101835.00;;;20.40
34807;BMP180;18310;55.586;12.286;2022-07-06T01:34:00;101833.00;;;20.30
34807;BMP180;18310;55.586;12.286;2022-07-06T01:37:05;101836.00;;;20.30
34807;BMP180;18310;55.586;12.286;2022-07-06T01:40:11;101836.00;;;20.30
34807;BMP180;18310;55.586;12.286;2022-07-06T01:43:15;101832.00;;;20.30
34807;BMP180;18310;55.586;12.286;2022-07-06T01:46:18;101831.00;;;20.30
34807;BMP180;18310;55.586;12.286;2022-07-06T01:49:23;101825.00;;;20.30
34807;BMP180;18310;55.586;12.286;2022-07-06T01:52:28;101833.00;;;20.20
34807;BMP180;18310;55.586;12.286;2022-07-06T01:55:32;101833.00;;;20.20
34807;BMP180;18310;55.586;12.286;2022-07-06T01:58:36;101825.00;;;20.20
34807;BMP180;18310;55.586;12.286;2022-07-06T02:01:39;101827.00;;;20.20
34807;BMP180;18310;55.586;12.286;2022-07-06T02:04:43;101828.00;;;20.10
34807;BMP180;18310;55.586;12.286;2022-07-06T02:07:47;101819.00;;;20.10
34807;BMP180;18310;55.586;12.286;2022-07-06T02:10:50;101816.00;;;20.10
34807;BMP180;18310;55.586;12.286;2022-07-06T02:13:54;101824.00;;;20.10
34807;BMP180;18310;55.586;12.286;2022-07-06T02:16:58;101829.00;;;20.00
34807;BMP180;18310;55.586;12.286;2022-07-06T02:20:05;101832.00;;;20.00
34807;BMP180;18310;55.586;12.286;2022-07-06T02:23:09;101829.00;;;20.00
34807;BMP180;18310;55.586;12.286;2022-07-06T02:26:13;101827.00;;;20.10
34807;BMP180;18310;55.586;12.286;2022-07-06T02:29:17;101825.00;;;20.10
34807;BMP180;18310;55.586;12.286;2022-07-06T02:32:21;101815.00;;;20.10
34807;BMP180;18310;55.586;12.286;2022-07-06T02:35:25;101822.00;;;20.10
34807;BMP180;18310;55.586;12.286;2022-07-06T02:38:30;101820.00;;;20.10
34807;BMP180;18310;55.586;12.286;2022-07-06T02:41:33;101819.00;;;20.10
34807;BMP180;18310;55.586;12.286;2022-07-06T02:44:37;101825.00;;;20.10
34807;BMP180;18310;55.586;12.286;2022-07-06T02:47:41;101829.00;;;20.10
34807;BMP180;18310;55.586;12.286;2022-07-06T02:50:44;101820.00;;;20.10
34807;BMP180;18310;55.586;12.286;2022-07-06T02:53:49;101825.00;;;20.10
34807;BMP180;18310;55.586;12.286;2022-07-06T02:56:52;101820.00;;;20.10
34807;BMP180;18310;55.586;12.286;2022-07-06T02:59:56;101813.00;;;20.10
34807;BMP180;18310;55.586;12.286;2022-07-06T03:03:00;101812.00;;;20.10
34807;BMP180;18310;55.586;12.286;2022-07-06T03:06:04;101811.00;;;20.20
34807;BMP180;18310;55.586;12.286;2022-07-06T03:09:09;101820.00;;;20.20
34807;BMP180;18310;55.586;12.286;2022-07-06T03:12:12;101813.00;;;20.20
34807;BMP180;18310;55.586;12.286;2022-07-06T03:15:18;101814.00;;;20.20
34807;BMP180;18310;55.586;12.286;2022-07-06T03:18:21;101820.00;;;20.20
34807;BMP180;18310;55.586;12.286;2022-07-06T03:21:27;101815.00;;;20.20
34807;BMP180;18310;55.586;12.286;2022-07-06T03:24:32;101824.00;;;20.20
34807;BMP180;18310;55.586;12.286;2022-07-06T03:27:37;101826.00;;;20.30
34807;BMP180;18310;55.586;12.286;2022-07-06T03:30:40;101824.00;;;20.30
34807;BMP180;18310;55.586;12.286;2022-07-06T03:33:44;101821.00;;;20.30
34807;BMP180;18310;55.586;12.286;2022-07-06T03:36:50;101822.00;;;20.40
34807;BMP180;18310;55.586;12.286;2022-07-06T03:39:55;101827.00;;;20.50
34807;BMP180;18310;55.586;12.286;2022-07-06T03:42:58;101832.00;;;20.50
34807;BMP180;18310;55.586;12.286;2022-07-06T03:46:02;101823.00;;;20.50
34807;BMP180;18310;55.586;12.286;2022-07-06T03:49:08;101823.00;;;20.60
34807;BMP180;18310;55.586;12.286;2022-07-06T03:52:13;101824.00;;;20.70
34807;BMP180;18310;55.586;12.286;2022-07-06T03:55:22;101831.00;;;20.80
34807;BMP180;18310;55.586;12.286;2022-07-06T03:58:26;101819.00;;;20.80
34807;BMP180;18310;55.586;12.286;2022-07-06T04:01:30;101832.00;;;20.90
34807;BMP180;18310;55.586;12.286;2022-07-06T04:04:34;101833.00;;;21.00
34807;BMP180;18310;55.586;12.286;2022-07-06T04:07:37;101823.00;;;21.20
34807;BMP180;18310;55.586;12.286;2022-07-06T04:10:42;101823.00;;;21.30
34807;BMP180;18310;55.586;12.286;2022-07-06T04:13:46;101816.00;;;21.50
34807;BMP180;18310;55.586;12.286;2022-07-06T04:16:49;101807.00;;;22.20
34807;BMP180;18310;55.586;12.286;2022-07-06T04:19:53;101814.00;;;23.00
34807;BMP180;18310;55.586;12.286;2022-07-06T04:22:57;101827.00;;;23.90
34807;BMP180;18310;55.586;12.286;2022-07-06T04:26:02;101818.00;;;24.70
34807;BMP180;18310;55.586;12.286;2022-07-06T04:29:05;101816.00;;;25.50
34807;BMP180;18310;55.586;12.286;2022-07-06T04:32:09;101825.00;;;26.30
34807;BMP180;18310;55.586;12.286;2022-07-06T04:35:13;101825.00;;;27.00
34807;BMP180;18310;55.586;12.286;2022-07-06T04:38:16;101826.00;;;27.70
34807;BMP180;18310;55.586;12.286;2022-07-06T04:41:22;101831.00;;;28.30
34807;BMP180;18310;55.586;12.286;2022-07-06T04:44:25;101837.00;;;28.80
34807;BMP180;18310;55.586;12.286;2022-07-06T04:47:29;101827.00;;;29.30
34807;BMP180;18310;55.586;12.286;2022-07-06T04:50:32;101838.00;;;29.70
34807;BMP180;18310;55.586;12.286;2022-07-06T04:53:41;101846.00;;;30.20
34807;BMP180;18310;55.586;12.286;2022-07-06T04:56:46;101840.00;;;30.70
34807;BMP180;18310;55.586;12.286;2022-07-06T04:59:50;101852.00;;;31.10
34807;BMP180;18310;55.586;12.286;2022-07-06T05:02:53;101857.00;;;31.60
34807;BMP180;18310;55.586;12.286;2022-07-06T05:05:57;101851.00;;;31.90
34807;BMP180;18310;55.586;12.286;2022-07-06T05:09:01;101852.00;;;32.30
34807;BMP180;18310;55.586;12.286;2022-07-06T05:12:07;101857.00;;;32.60
34807;BMP180;18310;55.586;12.286;2022-07-06T05:15:11;101850.00;;;32.90
34807;BMP180;18310;55.586;12.286;2022-07-06T05:18:14;101861.00;;;33.20
34807;BMP180;18310;55.586;12.286;2022-07-06T05:21:18;101859.00;;;33.50
34807;BMP180;18310;55.586;12.286;2022-07-06T05:24:22;101860.00;;;33.60
34807;BMP180;18310;55.586;12.286;2022-07-06T05:27:27;101865.00;;;33.80
34807;BMP180;18310;55.586;12.286;2022-07-06T05:30:30;101859.00;;;33.90
34807;BMP180;18310;55.586;12.286;2022-07-06T05:33:34;101865.00;;;34.10
34807;BMP180;18310;55.586;12.286;2022-07-06T05:36:37;101857.00;;;34.30
34807;BMP180;18310;55.586;12.286;2022-07-06T05:39:41;101855.00;;;34.40
34807;BMP180;18310;55.586;12.286;2022-07-06T05:42:49;101856.00;;;34.50
34807;BMP180;18310;55.586;12.286;2022-07-06T05:45:53;101854.00;;;34.70
34807;BMP180;18310;55.586;12.286;2022-07-06T05:48:56;101853.00;;;34.70
34807;BMP180;18310;55.586;12.286;2022-07-06T05:52:17;101857.00;;;34.80
34807;BMP180;18310;55.586;12.286;2022-07-06T05:55:21;101862.00;;;34.90
34807;BMP180;18310;55.586;12.286;2022-07-06T05:58:25;101857.00;;;35.10
34807;BMP180;18310;55.586;12.286;2022-07-06T06:01:29;101854.00;;;35.20
34807;BMP180;18310;55.586;12.286;2022-07-06T06:04:32;101861.00;;;35.40
34807;BMP180;18310;55.586;12.286;2022-07-06T06:07:37;101856.00;;;35.50
34807;BMP180;18310;55.586;12.286;2022-07-06T06:10:41;101858.00;;;35.70
34807;BMP180;18310;55.586;12.286;2022-07-06T06:13:47;101858.00;;;36.10
34807;BMP180;18310;55.586;12.286;2022-07-06T06:16:50;101865.00;;;36.00
34807;BMP180;18310;55.586;12.286;2022-07-06T06:19:54;101875.00;;;36.00
34807;BMP180;18310;55.586;12.286;2022-07-06T06:22:59;101878.00;;;36.00
34807;BMP180;18310;55.586;12.286;2022-07-06T06:26:05;101869.00;;;35.60
34807;BMP180;18310;55.586;12.286;2022-07-06T06:29:10;101887.00;;;35.50
34807;BMP180;18310;55.586;12.286;2022-07-06T06:32:14;101865.00;;;35.00
34807;BMP180;18310;55.586;12.286;2022-07-06T06:35:17;101860.00;;;35.10
34807;BMP180;18310;55.586;12.286;2022-07-06T06:38:22;101861.00;;;35.40
34807;BMP180;18310;55.586;12.286;2022-07-06T06:41:30;101862.00;;;35.80
34807;BMP180;18310;55.586;12.286;2022-07-06T06:44:36;101880.00;;;36.10
34807;BMP180;18310;55.586;12.286;2022-07-06T06:47:39;101884.00;;;35.30
34807;BMP180;18310;55.586;12.286;2022-07-06T06:50:43;101896.00;;;34.40
34807;BMP180;18310;55.586;12.286;2022-07-06T06:53:47;101873.00;;;34.00
34807;BMP180;18310;55.586;12.286;2022-07-06T06:56:50;101871.00;;;34.40
34807;BMP180;18310;55.586;12.286;2022-07-06T06:59:55;101872.00;;;34.60
34807;BMP180;18310;55.586;12.286;2022-07-06T07:02:59;101882.00;;;34.60
34807;BMP180;18310;55.586;12.286;2022-07-06T07:06:03;101879.00;;;34.00
34807;BMP180;18310;55.586;12.286;2022-07-06T07:09:07;101883.00;;;33.30
34807;BMP180;18310;55.586;12.286;2022-07-06T07:12:10;101881.00;;;32.40
34807;BMP180;18310;55.586;12.286;2022-07-06T07:15:16;101893.00;;;31.60
34807;BMP180;18310;55.586;12.286;2022-07-06T07:18:19;101889.00;;;30.80
34807;BMP180;18310;55.586;12.286;2022-07-06T07:21:23;101885.00;;;30.30
34807;BMP180;18310;55.586;12.286;2022-07-06T07:24:26;101898.00;;;29.80
34807;BMP180;18310;55.586;12.286;2022-07-06T07:27:30;101885.00;;;29.50
34807;BMP180;18310;55.586;12.286;2022-07-06T07:30:36;101894.00;;;29.90
34807;BMP180;18310;55.586;12.286;2022-07-06T07:33:40;101889.00;;;30.40
34807;BMP180;18310;55.586;12.286;2022-07-06T07:36:43;101906.00;;;30.50
34807;BMP180;18310;55.586;12.286;2022-07-06T07:39:47;101895.00;;;30.20
34807;BMP180;18310;55.586;12.286;2022-07-06T07:42:50;101889.00;;;30.10
34807;BMP180;18310;55.586;12.286;2022-07-06T07:45:55;101880.00;;;30.10
34807;BMP180;18310;55.586;12.286;2022-07-06T07:48:59;101894.00;;;30.10
34807;BMP180;18310;55.586;12.286;2022-07-06T07:52:05;101890.00;;;30.00
34807;BMP180;18310;55.586;12.286;2022-07-06T07:55:10;101898.00;;;30.00
34807;BMP180;18310;55.586;12.286;2022-07-06T07:58:33;101895.00;;;29.80
34807;BMP180;18310;55.586;12.286;2022-07-06T08:01:38;101896.00;;;29.70
34807;BMP180;18310;55.586;12.286;2022-07-06T08:04:41;101916.00;;;29.50
34807;BMP180;18310;55.586;12.286;2022-07-06T08:07:46;101923.00;;;29.10
34807;BMP180;18310;55.586;12.286;2022-07-06T08:10:49;101920.00;;;28.60
34807;BMP180;18310;55.586;12.286;2022-07-06T08:14:12;101905.00;;;28.20
34807;BMP180;18310;55.586;12.286;2022-07-06T08:17:18;101909.00;;;27.90
34807;BMP180;18310;55.586;12.286;2022-07-06T08:20:21;101908.00;;;27.70
34807;BMP180;18310;55.586;12.286;2022-07-06T08:23:25;101912.00;;;27.50
34807;BMP180;18310;55.586;12.286;2022-07-06T08:26:28;101898.00;;;27.40
34807;BMP180;18310;55.586;12.286;2022-07-06T08:29:32;101895.00;;;27.30
34807;BMP180;18310;55.586;12.286;2022-07-06T08:32:38;101892.00;;;27.40
34807;BMP180;18310;55.586;12.286;2022-07-06T08:36:03;101888.00;;;27.50
34807;BMP180;18310;55.586;12.286;2022-07-06T08:39:07;101883.00;;;27.60
34807;BMP180;18310;55.586;12.286;2022-07-06T08:42:15;101896.00;;;27.60
34807;BMP180;18310;55.586;12.286;2022-07-06T08:45:20;101899.00;;;27.50
34807;BMP180;18310;55.586;12.286;2022-07-06T08:48:27;101898.00;;;27.50
34807;BMP180;18310;55.586;12.286;2022-07-06T08:51:35;101905.00;;;27.50
34807;BMP180;18310;55.586;12.286;2022-07-06T08:54:39;101898.00;;;27.30
34807;BMP180;18310;55.586;12.286;2022-07-06T08:57:46;101904.00;;;27.20
34807;BMP180;18310;55.586;12.286;2022-07-06T09:00:50;101883.00;;;27.10
34807;BMP180;18310;55.586;12.286;2022-07-06T09:03:56;101891.00;;;27.10
34807;BMP180;18310;55.586;12.286;2022-07-06T09:06:59;101888.00;;;27.00
34807;BMP180;18310;55.586;12.286;2022-07-06T09:10:04;101884.00;;;27.10
34807;BMP180;18310;55.586;12.286;2022-07-06T09:13:09;101883.00;;;27.30
34807;BMP180;18310;55.586;12.286;2022-07-06T09:16:15;101886.00;;;27.70
34807;BMP180;18310;55.586;12.286;2022-07-06T09:19:40;101883.00;;;27.90
34807;BMP180;18310;55.586;12.286;2022-07-06T09:22:44;101886.00;;;28.00
34807;BMP180;18310;55.586;12.286;2022-07-06T09:25:48;101870.00;;;28.00
34807;BMP180;18310;55.586;12.286;2022-07-06T09:28:56;101887.00;;;28.00
34807;BMP180;18310;55.586;12.286;2022-07-06T09:32:01;101878.00;;;27.90
34807;BMP180;18310;55.586;12.286;2022-07-06T09:35:07;101874.00;;;27.90
34807;BMP180;18310;55.586;12.286;2022-07-06T09:38:13;101891.00;;;27.90
34807;BMP180;18310;55.586;12.286;2022-07-06T09:41:31;101888.00;;;27.90
34807;BMP180;18310;55.586;12.286;2022-07-06T09:44:38;101894.00;;;27.90
34807;BMP180;18310;55.586;12.286;2022-07-06T09:47:47;101904.00;;;28.00
34807;BMP180;18310;55.586;12.286;2022-07-06T09:50:54;101899.00;;;27.90
34807;BMP180;18310;55.586;12.286;2022-07-06T09:53:58;101894.00;;;27.90
34807;BMP180;18310;55.586;12.286;2022-07-06T09:57:03;101890.00;;;27.90
34807;BMP180;18310;55.586;12.286;2022-07-06T10:00:12;101883.00;;;28.10
34807;BMP180;18310;55.586;12.286;2022-07-06T10:03:18;101897.00;;;28.40
34807;BMP180;18310;55.586;12.286;2022-07-06T10:06:24;101890.00;;;28.70
34807;BMP180;18310;55.586;12.286;2022-07-06T10:09:29;101896.00;;;28.90
34807;BMP180;18310;55.586;12.286;2022-07-06T10:12:36;101900.00;;;28.90
34807;BMP180;18310;55.586;12.286;2022-07-06T10:15:40;101903.00;;;28.90
34807;BMP180;18310;55.586;12.286;2022-07-06T10:18:44;101893.00;;;28.90
34807;BMP180;18310;55.586;12.286;2022-07-06T10:21:50;101888.00;;;29.00
34807;BMP180;18310;55.586;12.286;2022-07-06T10:24:56;101900.00;;;29.10
34807;BMP180;18310;55.586;12.286;2022-07-06T10:28:02;101910.00;;;29.30
34807;BMP180;18310;55.586;12.286;2022-07-06T10:31:14;101920.00;;;29.30
34807;BMP180;18310;55.586;12.286;2022-07-06T10:34:19;101906.00;;;29.30
34807;BMP180;18310;55.586;12.286;2022-07-06T10:37:26;101899.00;;;29.30
34807;BMP180;18310;55.586;12.286;2022-07-06T10:40:37;101896.00;;;29.40
34807;BMP180;18310;55.586;12.286;2022-07-06T10:44:15;101895.00;;;29.60
34807;BMP180;18310;55.586;12.286;2022-07-06T10:47:27;101890.00;;;29.80
34807;BMP180;18310;55.586;12.286;2022-07-06T10:50:35;101889.00;;;29.90
34807;BMP180;18310;55.586;12.286;2022-07-06T10:53:40;101897.00;;;30.00
34807;BMP180;18310;55.586;12.286;2022-07-06T10:56:49;101890.00;;;30.20
34807;BMP180;18310;55.586;12.286;2022-07-06T11:00:02;101896.00;;;30.30
34807;BMP180;18310;55.586;12.286;2022-07-06T11:03:31;101908.00;;;30.30
34807;BMP180;18310;55.586;12.286;2022-07-06T11:06:37;101908.00;;;30.20
34807;BMP180;18310;55.586;12.286;2022-07-06T11:09:53;101902.00;;;30.00
34807;BMP180;18310;55.586;12.286;2022-07-06T11:12:59;101902.00;;;29.80
34807;BMP180;18310;55.586;12.286;2022-07-06T11:16:04;101904.00;;;29.70
34807;BMP180;18310;55.586;12.286;2022-07-06T11:19:12;101894.00;;;29.70
34807;BMP180;18310;55.586;12.286;2022-07-06T11:22:17;101906.00;;;29.70
34807;BMP180;18310;55.586;12.286;2022-07-06T11:25:23;101894.00;;;29.70
34807;BMP180;18310;55.586;12.286;2022-07-06T11:28:27;101893.00;;;29.60
34807;BMP180;18310;55.586;12.286;2022-07-06T11:31:32;101894.00;;;29.70
34807;BMP180;18310;55.586;12.286;2022-07-06T11:34:37;101902.00;;;29.70
34807;BMP180;18310;55.586;12.286;2022-07-06T11:37:41;101894.00;;;29.80
34807;BMP180;18310;55.586;12.286;2022-07-06T11:40:46;101898.00;;;29.90
34807;BMP180;18310;55.586;12.286;2022-07-06T11:43:50;101906.00;;;29.80
34807;BMP180;18310;55.586;12.286;2022-07-06T11:46:53;101916.00;;;29.80
34807;BMP180;18310;55.586;12.286;2022-07-06T11:49:58;101907.00;;;29.70
34807;BMP180;18310;55.586;12.286;2022-07-06T11:53:01;101911.00;;;29.70
34807;BMP180;18310;55.586;12.286;2022-07-06T11:56:07;101918.00;;;29.60
34807;BMP180;18310;55.586;12.286;2022-07-06T11:59:10;101918.00;;;29.50
34807;BMP180;18310;55.586;12.286;2022-07-06T12:02:15;101898.00;;;29.30
34807;BMP180;18310;55.586;12.286;2022-07-06T12:05:29;101888.00;;;29.30
34807;BMP180;18310;55.586;12.286;2022-07-06T12:08:42;101882.00;;;29.30
34807;BMP180;18310;55.586;12.286;2022-07-06T12:11:47;101878.00;;;29.50
34807;BMP180;18310;55.586;12.286;2022-07-06T12:14:52;101884.00;;;29.60
34807;BMP180;18310;55.586;12.286;2022-07-06T12:17:56;101890.00;;;29.60
34807;BMP180;18310;55.586;12.286;2022-07-06T12:21:01;101889.00;;;29.40
34807;BMP180;18310;55.586;12.286;2022-07-06T12:24:07;101889.00;;;29.30
34807;BMP180;18310;55.586;12.286;2022-07-06T12:27:15;101896.00;;;29.20
34807;BMP180;18310;55.586;12.286;2022-07-06T12:30:19;101902.00;;;29.10
34807;BMP180;18310;55.586;12.286;2022-07-06T12:33:24;101902.00;;;29.10
34807;BMP180;18310;55.586;12.286;2022-07-06T12:36:31;101891.00;;;29.20
34807;BMP180;18310;55.586;12.286;2022-07-06T12:39:42;101895.00;;;29.30
34807;BMP180;18310;55.586;12.286;2022-07-06T12:42:48;101890.00;;;29.40
34807;BMP180;18310;55.586;12.286;2022-07-06T12:45:51;101905.00;;;29.30
34807;BMP180;18310;55.586;12.286;2022-07-06T12:48:55;101894.00;;;29.30
34807;BMP180;18310;55.586;12.286;2022-07-06T12:52:10;101887.00;;;29.10
34807;BMP180;18310;55.586;12.286;2022-07-06T12:55:14;101874.00;;;29.00
34807;BMP180;18310;55.586;12.286;2022-07-06T12:58:19;101882.00;;;28.90
34807;BMP180;18310;55.586;12.286;2022-07-06T13:01:23;101881.00;;;29.00
34807;BMP180;18310;55.586;12.286;2022-07-06T13:04:29;101879.00;;;29.10
34807;BMP180;18310;55.586;12.286;2022-07-06T13:07:36;101881.00;;;29.10
34807;BMP180;18310;55.586;12.286;2022-07-06T13:10:39;101878.00;;;29.10
34807;BMP180;18310;55.586;12.286;2022-07-06T13:13:46;101873.00;;;29.10
34807;BMP180;18310;55.586;12.286;2022-07-06T13:16:49;101890.00;;;29.00
34807;BMP180;18310;55.586;12.286;2022-07-06T13:19:53;101888.00;;;28.90
34807;BMP180;18310;55.586;12.286;2022-07-06T13:22:57;101880.00;;;28.80
34807;BMP180;18310;55.586;12.286;2022-07-06T13:26:00;101878.00;;;28.80
34807;BMP180;18310;55.586;12.286;2022-07-06T13:29:05;101877.00;;;28.80
34807;BMP180;18310;55.586;12.286;2022-07-06T13:32:08;101870.00;;;28.70
34807;BMP180;18310;55.586;12.286;2022-07-06T13:35:12;101870.00;;;28.60
34807;BMP180;18310;55.586;12.286;2022-07-06T13:38:15;101874.00;;;28.50
34807;BMP180;18310;55.586;12.286;2022-07-06T13:41:19;101859.00;;;28.60
34807;BMP180;18310;55.586;12.286;2022-07-06T13:44:23;101861.00;;;28.70
34807;BMP180;18310;55.586;12.286;2022-07-06T13:47:27;101870.00;;;28.80
34807;BMP180;18310;55.586;12.286;2022-07-06T13:50:31;101856.00;;;29.00
34807;BMP180;18310;55.586;12.286;2022-07-06T13:53:35;101847.00;;;29.20
34807;BMP180;18310;55.586;12.286;2022-07-06T13:56:39;101846.00;;;29.40
34807;BMP180;18310;55.586;12.286;2022-07-06T13:59:45;101857.00;;;29.60
34807;BMP180;18310;55.586;12.286;2022-07-06T14:02:49;101849.00;;;29.70
34807;BMP180;18310;55.586;12.286;2022-07-06T14:05:52;101845.00;;;29.80
34807;BMP180;18310;55.586;12.286;2022-07-06T14:08:55;101845.00;;;29.90
34807;BMP180;18310;55.586;12.286;2022-07-06T14:11:59;101843.00;;;29.90
34807;BMP180;18310;55.586;12.286;2022-07-06T14:15:07;101848.00;;;29.90
34807;BMP180;18310;55.586;12.286;2022-07-06T14:18:11;101833.00;;;29.90
34807;BMP180;18310;55.586;12.286;2022-07-06T14:21:14;101837.00;;;29.90
34807;BMP180;18310;55.586;12.286;2022-07-06T14:24:18;101835.00;;;29.90
34807;BMP180;18310;55.586;12.286;2022-07-06T14:27:22;101840.00;;;29.90
34807;BMP180;18310;55.586;12.286;2022-07-06T14:30:27;101828.00;;;29.80
34807;BMP180;18310;55.586;12.286;2022-07-06T14:33:32;101827.00;;;29.90
34807;BMP180;18310;55.586;12.286;2022-07-06T14:36:36;101823.00;;;29.90
34807;BMP180;18310;55.586;12.286;2022-07-06T14:39:40;101827.00;;;29.90
34807;BMP180;18310;55.586;12.286;2022-07-06T14:42:43;101827.00;;;29.80
34807;BMP180;18310;55.586;12.286;2022-07-06T14:45:48;101829.00;;;29.80
34807;BMP180;18310;55.586;12.286;2022-07-06T14:48:52;101823.00;;;29.80
34807;BMP180;18310;55.586;12.286;2022-07-06T14:51:55;101823.00;;;29.90
34807;BMP180;18310;55.586;12.286;2022-07-06T14:54:59;101826.00;;;30.00
34807;BMP180;18310;55.586;12.286;2022-07-06T14:58:03;101825.00;;;30.10
34807;BMP180;18310;55.586;12.286;2022-07-06T15:01:08;101825.00;;;30.10
34807;BMP180;18310;55.586;12.286;2022-07-06T15:04:11;101827.00;;;30.20
34807;BMP180;18310;55.586;12.286;2022-07-06T15:07:15;101816.00;;;30.30
34807;BMP180;18310;55.586;12.286;2022-07-06T15:10:18;101826.00;;;30.30
34807;BMP180;18310;55.586;12.286;2022-07-06T15:13:23;101826.00;;;30.40
34807;BMP180;18310;55.586;12.286;2022-07-06T15:16:30;101825.00;;;30.40
34807;BMP180;18310;55.586;12.286;2022-07-06T15:19:34;101818.00;;;30.30
34807;BMP180;18310;55.586;12.286;2022-07-06T15:22:37;101823.00;;;30.20
34807;BMP180;18310;55.586;12.286;2022-07-06T15:25:41;101818.00;;;30.10
34807;BMP180;18310;55.586;12.286;2022-07-06T15:28:44;101813.00;;;30.00
34807;BMP180;18310;55.586;12.286;2022-07-06T15:31:49;101811.00;;;29.90
34807;BMP180;18310;55.586;12.286;2022-07-06T15:34:52;101809.00;;;29.90
34807;BMP180;18310;55.586;12.286;2022-07-06T15:37:58;101809.00;;;29.90
34807;BMP180;18310;55.586;12.286;2022-07-06T15:41:03;101806.00;;;29.90
34807;BMP180;18310;55.586;12.286;2022-07-06T15:44:06;101805.00;;;29.90
34807;BMP180;18310;55.586;12.286;2022-07-06T15:47:12;101795.00;;;29.90
34807;BMP180;18310;55.586;12.286;2022-07-06T15:50:16;101805.00;;;29.90
34807;BMP180;18310;55.586;12.286;2022-07-06T15:53:22;101799.00;;;29.90
34807;BMP180;18310;55.586;12.286;2022-07-06T15:56:26;101787.00;;;29.90
34807;BMP180;18310;55.586;12.286;2022-07-06T15:59:29;101788.00;;;29.90
34807;BMP180;18310;55.586;12.286;2022-07-06T16:02:34;101786.00;;;29.90
34807;BMP180;18310;55.586;12.286;2022-07-06T16:05:37;101784.00;;;29.90
34807;BMP180;18310;55.586;12.286;2022-07-06T16:09:01;101780.00;;;29.90
34807;BMP180;18310;55.586;12.286;2022-07-06T16:12:07;101781.00;;;29.90
34807;BMP180;18310;55.586;12.286;2022-07-06T16:15:11;101778.00;;;29.80
34807;BMP180;18310;55.586;12.286;2022-07-06T16:18:16;101769.00;;;29.70
34807;BMP180;18310;55.586;12.286;2022-07-06T16:21:19;101765.00;;;29.70
34807;BMP180;18310;55.586;12.286;2022-07-06T16:24:23;101769.00;;;29.60
34807;BMP180;18310;55.586;12.286;2022-07-06T16:27:27;101770.00;;;29.50
34807;BMP180;18310;55.586;12.286;2022-07-06T16:30:31;101765.00;;;29.40
34807;BMP180;18310;55.586;12.286;2022-07-06T16:33:37;101764.00;;;29.30
34807;BMP180;18310;55.586;12.286;2022-07-06T16:36:41;101751.00;;;29.20
34807;BMP180;18310;55.586;12.286;2022-07-06T16:39:45;101762.00;;;29.10
34807;BMP180;18310;55.586;12.286;2022-07-06T16:42:48;101753.00;;;29.00
34807;BMP180;18310;55.586;12.286;2022-07-06T16:45:52;101753.00;;;28.90
34807;BMP180;18310;55.586;12.286;2022-07-06T16:48:56;101755.00;;;28.80
34807;BMP180;18310;55.586;12.286;2022-07-06T16:52:00;101756.00;;;28.70
34807;BMP180;18310;55.586;12.286;2022-07-06T16:55:04;101749.00;;;28.70
34807;BMP180;18310;55.586;12.286;2022-07-06T16:58:08;101745.00;;;28.60
34807;BMP180;18310;55.586;12.286;2022-07-06T17:01:14;101747.00;;;28.60
34807;BMP180;18310;55.586;12.286;2022-07-06T17:04:18;101739.00;;;28.50
34807;BMP180;18310;55.586;12.286;2022-07-06T17:07:22;101751.00;;;28.50
34807;BMP180;18310;55.586;12.286;2022-07-06T17:10:26;101740.00;;;28.50
34807;BMP180;18310;55.586;12.286;2022-07-06T17:13:30;101739.00;;;28.40
34807;BMP180;18310;55.586;12.286;2022-07-06T17:16:34;101731.00;;;28.40